Decoded Metar for KFLG (FLAGSTAFF in AZ, USA) (IATA:FLG) | Meteo·Mobile Aviation Weather
aviador You're here:

KFLG Decoded Metar

FLAGSTAFF in AZ, USA
Report Time2019-01-20 10:57:00
UTC Time2019-01-20 11:29:52
Flight Rules vfr VFR
WindCalm
Visibility9999 m
Phenomena:N/A
Clouds:N/A
Expected CloudBase > 400 ft AGL from Temp-Dew spread
CeilingNone
Temp-7°C (ISA -8)
Dew Point-8°C (93% RH)
AAT-9.9°C
QNH1027 hPa
Density Alt5,604 ft
Elevation7,001 ft
Report Wrong Elevation
Raw Report
KFLG 201057Z AUTO 00000KT 10SM CLR M07/M08 A3032 RMK AO2 SLP253
I1000 T10671083=

Extra information for KFLG:More info

Metar Taf Metar & Taf Last 4 Metars F.Rules Stats Wind Profile Meteogram Temp Stats Airport Information Weather charts Add Link Nearby VenuesMetar ALERT Operation Metar Decoded Social comments

AIRNAV info for KFLG